CFG4HA EDDF-LEJR
Flight info
| Callsign | CFG4HA |
|---|---|
| Flight time | 2h 47m |
| Altitude | 35000 |
| Route | ANEKI2L/18 ANEKI Y163 HERBI Y164 MOPAN DCT LUTIX/N0443F370 DCT BENOT DCT NEMOS DCT NINTU DCT MEBAK DCT REPSI DCT LERGA DCT MINSO DCT NARAK DCT AGN DCT MAQAB DCT TIVLI DCT ELSAP DCT ZAR DCT KONKE DCT TERSA DCT CJN DCT PALIO DCT AKOKI DCT GOTOR DCT KAMPO DCT MONTO DCT MOLIN DCT HIJ |
| Aircraft | A320/M-SDE3FGHIRWY/LB1 |
Departure
| Time | 2026-05-07 18:14 |
|---|---|
| Airport | Frankfurt Main Airport (EDDF) |
Arrival
| Time | 2026-05-07 21:01 |
|---|---|
| Airport | Jerez Airport (LEJR) |
| Time | Latitude | Longitude | Altitude | Speed | Heading |
|---|---|---|---|---|---|
| 2026-05-07 17:40 | 50.04086 | 8.55758 | 364 ft | 0 kts | 159° |
| 2026-05-07 17:40 | 50.04080 | 8.55747 | 365 ft | 0 kts | 159° |
| 2026-05-07 18:07 | 50.04076 | 8.55749 | 360 ft | 3 kts | 160° |
| 2026-05-07 18:08 | 50.04032 | 8.55775 | 359 ft | 8 kts | 160° |
| 2026-05-07 18:08 | 50.03998 | 8.55739 | 359 ft | 7 kts | 246° |
| 2026-05-07 18:08 | 50.03969 | 8.55618 | 359 ft | 15 kts | 250° |
| 2026-05-07 18:08 | 50.03929 | 8.55450 | 361 ft | 18 kts | 250° |
| 2026-05-07 18:09 | 50.03884 | 8.55263 | 360 ft | 19 kts | 249° |
| 2026-05-07 18:09 | 50.03837 | 8.55065 | 365 ft | 20 kts | 250° |
| 2026-05-07 18:09 | 50.03786 | 8.54851 | 361 ft | 22 kts | 250° |
| 2026-05-07 18:09 | 50.03731 | 8.54621 | 362 ft | 25 kts | 250° |
| 2026-05-07 18:10 | 50.03668 | 8.54358 | 362 ft | 27 kts | 250° |
| 2026-05-07 18:10 | 50.03601 | 8.54080 | 361 ft | 28 kts | 250° |
| 2026-05-07 18:10 | 50.03533 | 8.53791 | 360 ft | 29 kts | 250° |
| 2026-05-07 18:10 | 50.03463 | 8.53500 | 362 ft | 25 kts | 250° |
| 2026-05-07 18:11 | 50.03402 | 8.53247 | 364 ft | 25 kts | 250° |
| 2026-05-07 18:11 | 50.03341 | 8.52988 | 361 ft | 26 kts | 249° |
| 2026-05-07 18:11 | 50.03288 | 8.52764 | 363 ft | 20 kts | 249° |
| 2026-05-07 18:11 | 50.03259 | 8.52644 | 366 ft | 11 kts | 253° |
| 2026-05-07 18:12 | 50.03219 | 8.52597 | 360 ft | 7 kts | 182° |
| 2026-05-07 18:12 | 50.03215 | 8.52596 | 360 ft | 0 kts | 181° |
| 2026-05-07 18:13 | 50.03201 | 8.52596 | 360 ft | 18 kts | 181° |
| 2026-05-07 18:13 | 50.02797 | 8.52600 | 364 ft | 93 kts | 179° |
| 2026-05-07 18:13 | 50.01942 | 8.52608 | 362 ft | 150 kts | 179° |
| 2026-05-07 18:13 | 50.00777 | 8.52624 | 628 ft | 173 kts | 179° |
| 2026-05-07 18:14 | 49.99574 | 8.52664 | 1303 ft | 173 kts | 177° |
| 2026-05-07 18:14 | 49.98374 | 8.52739 | 2007 ft | 173 kts | 176° |
| 2026-05-07 18:14 | 49.97128 | 8.52828 | 2417 ft | 190 kts | 177° |
| 2026-05-07 18:14 | 49.95729 | 8.52926 | 2720 ft | 212 kts | 177° |
| 2026-05-07 18:15 | 49.94183 | 8.53034 | 3102 ft | 232 kts | 178° |
| 2026-05-07 18:15 | 49.92551 | 8.53146 | 3821 ft | 236 kts | 178° |
| 2026-05-07 18:15 | 49.90896 | 8.53261 | 4661 ft | 239 kts | 178° |
| 2026-05-07 18:15 | 49.89227 | 8.53377 | 5462 ft | 242 kts | 179° |
| 2026-05-07 18:16 | 49.87538 | 8.53496 | 6280 ft | 243 kts | 179° |
| 2026-05-07 18:16 | 49.85844 | 8.53614 | 7075 ft | 245 kts | 179° |
| 2026-05-07 18:16 | 49.84130 | 8.53732 | 7854 ft | 247 kts | 179° |
| 2026-05-07 18:16 | 49.82399 | 8.53852 | 8630 ft | 250 kts | 179° |
| 2026-05-07 18:17 | 49.80650 | 8.53975 | 9417 ft | 253 kts | 179° |
| 2026-05-07 18:17 | 49.78882 | 8.54096 | 10179 ft | 256 kts | 179° |
| 2026-05-07 18:17 | 49.77086 | 8.54017 | 10744 ft | 266 kts | 186° |
| 2026-05-07 18:17 | 49.75161 | 8.53764 | 10988 ft | 289 kts | 186° |
| 2026-05-07 18:18 | 49.73072 | 8.53480 | 11199 ft | 313 kts | 186° |
| 2026-05-07 18:18 | 49.70849 | 8.53008 | 11492 ft | 330 kts | 197° |
| 2026-05-07 18:18 | 49.68635 | 8.51954 | 12124 ft | 336 kts | 199° |
| 2026-05-07 18:18 | 49.66385 | 8.50874 | 12843 ft | 340 kts | 199° |
| 2026-05-07 18:19 | 49.64118 | 8.49786 | 13559 ft | 343 kts | 198° |
| 2026-05-07 18:19 | 49.61830 | 8.48689 | 14224 ft | 347 kts | 198° |
| 2026-05-07 18:19 | 49.59516 | 8.47580 | 14862 ft | 350 kts | 198° |
| 2026-05-07 18:19 | 49.57183 | 8.46465 | 15498 ft | 353 kts | 198° |
| 2026-05-07 18:20 | 49.54829 | 8.45342 | 16134 ft | 355 kts | 199° |
| 2026-05-07 18:20 | 49.52487 | 8.44225 | 16759 ft | 358 kts | 199° |
| 2026-05-07 18:20 | 49.50098 | 8.43085 | 17383 ft | 361 kts | 199° |
| 2026-05-07 18:20 | 49.47687 | 8.41937 | 18003 ft | 364 kts | 199° |
| 2026-05-07 18:21 | 49.45251 | 8.40781 | 18581 ft | 367 kts | 199° |
| 2026-05-07 18:21 | 49.42803 | 8.39619 | 19115 ft | 370 kts | 199° |
| 2026-05-07 18:21 | 49.40333 | 8.38446 | 19663 ft | 372 kts | 199° |
| 2026-05-07 18:21 | 49.37853 | 8.37272 | 20198 ft | 375 kts | 199° |
| 2026-05-07 18:22 | 49.35343 | 8.36083 | 20715 ft | 378 kts | 199° |
| 2026-05-07 18:22 | 49.33673 | 8.35292 | 21074 ft | 380 kts | 199° |
| 2026-05-07 18:22 | 49.30277 | 8.33683 | 21769 ft | 384 kts | 199° |
| 2026-05-07 18:22 | 49.27708 | 8.32470 | 22289 ft | 388 kts | 199° |
| 2026-05-07 18:23 | 49.25122 | 8.31252 | 22803 ft | 391 kts | 199° |
| 2026-05-07 18:23 | 49.22511 | 8.30023 | 23290 ft | 394 kts | 199° |
| 2026-05-07 18:23 | 49.19887 | 8.28790 | 23784 ft | 396 kts | 199° |
| 2026-05-07 18:23 | 49.17239 | 8.27546 | 24206 ft | 399 kts | 199° |
| 2026-05-07 18:24 | 49.14582 | 8.26299 | 24605 ft | 401 kts | 199° |
| 2026-05-07 18:24 | 49.11905 | 8.25045 | 24995 ft | 404 kts | 199° |
| 2026-05-07 18:24 | 49.09212 | 8.23783 | 25376 ft | 406 kts | 199° |
| 2026-05-07 18:24 | 49.06532 | 8.22531 | 25745 ft | 409 kts | 199° |
| 2026-05-07 18:25 | 49.03804 | 8.21258 | 26109 ft | 411 kts | 199° |
| 2026-05-07 18:25 | 49.01059 | 8.19977 | 26464 ft | 414 kts | 199° |
| 2026-05-07 18:25 | 48.98303 | 8.18690 | 26833 ft | 416 kts | 199° |
| 2026-05-07 18:25 | 48.95525 | 8.17394 | 27187 ft | 418 kts | 199° |
| 2026-05-07 18:26 | 48.92739 | 8.16095 | 27533 ft | 420 kts | 199° |
| 2026-05-07 18:26 | 48.89932 | 8.14786 | 27874 ft | 423 kts | 199° |
| 2026-05-07 18:26 | 48.87109 | 8.13474 | 28210 ft | 425 kts | 199° |
| 2026-05-07 18:26 | 48.84272 | 8.12163 | 28537 ft | 428 kts | 199° |
| 2026-05-07 18:27 | 48.81417 | 8.10846 | 28856 ft | 430 kts | 199° |
| 2026-05-07 18:27 | 48.78553 | 8.09518 | 29163 ft | 432 kts | 200° |
| 2026-05-07 18:27 | 48.75673 | 8.08182 | 29492 ft | 433 kts | 200° |
| 2026-05-07 18:27 | 48.72788 | 8.06850 | 29799 ft | 436 kts | 200° |
| 2026-05-07 18:28 | 48.69881 | 8.05515 | 30091 ft | 438 kts | 200° |
| 2026-05-07 18:28 | 48.66955 | 8.04171 | 30343 ft | 439 kts | 200° |
| 2026-05-07 18:28 | 48.64033 | 8.02826 | 30586 ft | 441 kts | 200° |
| 2026-05-07 18:28 | 48.61089 | 8.01469 | 30827 ft | 443 kts | 200° |
| 2026-05-07 18:29 | 48.58135 | 8.00115 | 31066 ft | 444 kts | 200° |
| 2026-05-07 18:29 | 48.55172 | 7.98764 | 31295 ft | 445 kts | 200° |
| 2026-05-07 18:29 | 48.52204 | 7.97414 | 31597 ft | 445 kts | 200° |
| 2026-05-07 18:29 | 48.49247 | 7.96065 | 31927 ft | 444 kts | 200° |
| 2026-05-07 18:30 | 48.46294 | 7.94717 | 32251 ft | 443 kts | 200° |
| 2026-05-07 18:30 | 48.43349 | 7.93375 | 32576 ft | 442 kts | 200° |
| 2026-05-07 18:30 | 48.40414 | 7.92038 | 32919 ft | 441 kts | 200° |
| 2026-05-07 18:30 | 48.37477 | 7.90701 | 33221 ft | 440 kts | 200° |
| 2026-05-07 18:31 | 48.34554 | 7.89373 | 33583 ft | 438 kts | 200° |
| 2026-05-07 18:31 | 48.31638 | 7.88052 | 33925 ft | 437 kts | 200° |
| 2026-05-07 18:31 | 48.28729 | 7.86734 | 34222 ft | 436 kts | 200° |
| 2026-05-07 18:31 | 48.25828 | 7.85419 | 34487 ft | 436 kts | 200° |
| 2026-05-07 18:32 | 48.22926 | 7.84109 | 34744 ft | 435 kts | 200° |
| 2026-05-07 18:32 | 48.20035 | 7.82808 | 34988 ft | 434 kts | 200° |
| 2026-05-07 18:32 | 48.17139 | 7.81507 | 35217 ft | 434 kts | 200° |
| 2026-05-07 18:32 | 48.14255 | 7.80207 | 35464 ft | 433 kts | 200° |
| 2026-05-07 18:33 | 48.11373 | 7.78908 | 35694 ft | 432 kts | 200° |
| 2026-05-07 18:33 | 48.08493 | 7.77612 | 35912 ft | 432 kts | 200° |
| 2026-05-07 18:33 | 48.05620 | 7.76321 | 36117 ft | 431 kts | 200° |
| 2026-05-07 18:33 | 48.02749 | 7.75033 | 36313 ft | 431 kts | 200° |
| 2026-05-07 18:34 | 47.99914 | 7.73760 | 36504 ft | 431 kts | 200° |
| 2026-05-07 18:34 | 47.97007 | 7.72457 | 36685 ft | 430 kts | 200° |
| 2026-05-07 18:34 | 47.94143 | 7.71175 | 36885 ft | 429 kts | 200° |
| 2026-05-07 18:34 | 47.91280 | 7.69898 | 37028 ft | 429 kts | 200° |
| 2026-05-07 18:35 | 47.88466 | 7.68652 | 37055 ft | 427 kts | 200° |
| 2026-05-07 18:35 | 47.82783 | 7.66127 | 37049 ft | 426 kts | 200° |
| 2026-05-07 18:36 | 47.77107 | 7.63605 | 37053 ft | 426 kts | 200° |
| 2026-05-07 18:36 | 47.71431 | 7.61095 | 37054 ft | 425 kts | 200° |
| 2026-05-07 18:37 | 47.65760 | 7.58603 | 37059 ft | 425 kts | 200° |
| 2026-05-07 18:37 | 47.60091 | 7.56100 | 37063 ft | 425 kts | 200° |
| 2026-05-07 18:38 | 47.54380 | 7.53578 | 37055 ft | 425 kts | 200° |
| 2026-05-07 18:38 | 47.48750 | 7.51098 | 37061 ft | 425 kts | 200° |
| 2026-05-07 18:39 | 47.43041 | 7.48597 | 37046 ft | 425 kts | 200° |
| 2026-05-07 18:39 | 47.37408 | 7.46139 | 37044 ft | 425 kts | 200° |
| 2026-05-07 18:40 | 47.31733 | 7.43676 | 37032 ft | 424 kts | 200° |
| 2026-05-07 18:40 | 47.26071 | 7.41209 | 37044 ft | 424 kts | 200° |
| 2026-05-07 18:41 | 47.20429 | 7.38704 | 37043 ft | 421 kts | 205° |
| 2026-05-07 18:41 | 47.15460 | 7.34439 | 37042 ft | 411 kts | 224° |
| 2026-05-07 18:42 | 47.11702 | 7.28208 | 37036 ft | 407 kts | 233° |
| 2026-05-07 18:42 | 47.08180 | 7.21705 | 37032 ft | 407 kts | 233° |
| 2026-05-07 18:43 | 47.04646 | 7.15216 | 37042 ft | 407 kts | 233° |
| 2026-05-07 18:43 | 47.01106 | 7.08742 | 37040 ft | 407 kts | 233° |
| 2026-05-07 18:44 | 46.97569 | 7.02279 | 37035 ft | 407 kts | 233° |
| 2026-05-07 18:44 | 46.94031 | 6.95823 | 37032 ft | 406 kts | 233° |
| 2026-05-07 18:45 | 46.90490 | 6.89391 | 37035 ft | 406 kts | 233° |
| 2026-05-07 18:45 | 46.86940 | 6.82974 | 37034 ft | 406 kts | 233° |
| 2026-05-07 18:46 | 46.83392 | 6.76557 | 37036 ft | 406 kts | 233° |
| 2026-05-07 18:46 | 46.79840 | 6.70145 | 37037 ft | 406 kts | 233° |
| 2026-05-07 18:47 | 46.76284 | 6.63751 | 37036 ft | 406 kts | 232° |
| 2026-05-07 18:47 | 46.73327 | 6.58436 | 37026 ft | 406 kts | 232° |
| 2026-05-07 18:48 | 46.69769 | 6.52058 | 37038 ft | 405 kts | 232° |
| 2026-05-07 18:48 | 46.66202 | 6.45699 | 37060 ft | 406 kts | 232° |
| 2026-05-07 18:49 | 46.62624 | 6.39335 | 37036 ft | 406 kts | 232° |
| 2026-05-07 18:49 | 46.59048 | 6.32966 | 37035 ft | 407 kts | 232° |
| 2026-05-07 18:50 | 46.55469 | 6.26595 | 37043 ft | 407 kts | 232° |
| 2026-05-07 18:50 | 46.51880 | 6.20224 | 37047 ft | 407 kts | 232° |
| 2026-05-07 18:51 | 46.48308 | 6.13921 | 37043 ft | 407 kts | 232° |
| 2026-05-07 18:51 | 46.44703 | 6.07577 | 37038 ft | 407 kts | 232° |
| 2026-05-07 18:52 | 46.41101 | 6.01247 | 37034 ft | 407 kts | 232° |
| 2026-05-07 18:52 | 46.37499 | 5.94928 | 37018 ft | 406 kts | 232° |
| 2026-05-07 18:53 | 46.33899 | 5.88629 | 37020 ft | 406 kts | 232° |
| 2026-05-07 18:53 | 46.30298 | 5.82340 | 37027 ft | 406 kts | 232° |
| 2026-05-07 18:54 | 46.26700 | 5.76067 | 37023 ft | 405 kts | 232° |
| 2026-05-07 18:54 | 46.23124 | 5.69849 | 37026 ft | 405 kts | 232° |
| 2026-05-07 18:55 | 46.19523 | 5.63598 | 37020 ft | 405 kts | 231° |
| 2026-05-07 18:55 | 46.15919 | 5.57360 | 37014 ft | 405 kts | 231° |
| 2026-05-07 18:56 | 46.12588 | 5.50840 | 37003 ft | 403 kts | 236° |
| 2026-05-07 18:56 | 46.09395 | 5.44181 | 37000 ft | 404 kts | 236° |
| 2026-05-07 18:57 | 46.06203 | 5.37536 | 37002 ft | 404 kts | 236° |
| 2026-05-07 18:57 | 46.03001 | 5.30897 | 36977 ft | 403 kts | 236° |
| 2026-05-07 18:58 | 45.99800 | 5.24265 | 36986 ft | 404 kts | 236° |
| 2026-05-07 18:58 | 45.96599 | 5.17636 | 36992 ft | 404 kts | 236° |
| 2026-05-07 18:59 | 45.93387 | 5.11013 | 36991 ft | 404 kts | 236° |
| 2026-05-07 18:59 | 45.90185 | 5.04447 | 36990 ft | 404 kts | 236° |
| 2026-05-07 19:00 | 45.86960 | 4.97839 | 36988 ft | 404 kts | 236° |
| 2026-05-07 19:00 | 45.83733 | 4.91227 | 36994 ft | 404 kts | 236° |
| 2026-05-07 19:01 | 45.80508 | 4.84612 | 36994 ft | 405 kts | 236° |
| 2026-05-07 19:01 | 45.77272 | 4.78003 | 37003 ft | 405 kts | 236° |
| 2026-05-07 19:02 | 45.74021 | 4.71418 | 36996 ft | 405 kts | 235° |
| 2026-05-07 19:02 | 45.70763 | 4.64837 | 37033 ft | 405 kts | 235° |
| 2026-05-07 19:03 | 45.67511 | 4.58243 | 37007 ft | 406 kts | 235° |
| 2026-05-07 19:03 | 45.64254 | 4.51658 | 37003 ft | 405 kts | 235° |
| 2026-05-07 19:04 | 45.61015 | 4.45129 | 36999 ft | 405 kts | 235° |
| 2026-05-07 19:04 | 45.57752 | 4.38566 | 37006 ft | 405 kts | 235° |
| 2026-05-07 19:05 | 45.54485 | 4.32008 | 37007 ft | 405 kts | 235° |
| 2026-05-07 19:05 | 45.51210 | 4.25467 | 37010 ft | 405 kts | 235° |
| 2026-05-07 19:06 | 45.47936 | 4.18927 | 37000 ft | 405 kts | 235° |
| 2026-05-07 19:06 | 45.43016 | 4.09148 | 37008 ft | 405 kts | 235° |
| 2026-05-07 19:07 | 45.39735 | 4.02634 | 37013 ft | 405 kts | 235° |
| 2026-05-07 19:07 | 45.36447 | 3.96132 | 37002 ft | 405 kts | 234° |
| 2026-05-07 19:08 | 45.33154 | 3.89640 | 37023 ft | 405 kts | 234° |
| 2026-05-07 19:08 | 45.29854 | 3.83148 | 37019 ft | 405 kts | 234° |
| 2026-05-07 19:09 | 45.26557 | 3.76667 | 37027 ft | 405 kts | 234° |
| 2026-05-07 19:09 | 45.23283 | 3.70148 | 37010 ft | 405 kts | 235° |
| 2026-05-07 19:10 | 45.20074 | 3.63584 | 37017 ft | 405 kts | 236° |
| 2026-05-07 19:10 | 45.16886 | 3.57073 | 37010 ft | 405 kts | 235° |
| 2026-05-07 19:11 | 45.13658 | 3.50546 | 36999 ft | 404 kts | 235° |
| 2026-05-07 19:11 | 45.10426 | 3.44040 | 36997 ft | 404 kts | 235° |
| 2026-05-07 19:12 | 45.07195 | 3.37534 | 36998 ft | 404 kts | 235° |
| 2026-05-07 19:12 | 45.03959 | 3.31034 | 36996 ft | 404 kts | 235° |
| 2026-05-07 19:13 | 45.00724 | 3.24543 | 36999 ft | 404 kts | 235° |
| 2026-05-07 19:13 | 44.97483 | 3.18067 | 36997 ft | 404 kts | 235° |
| 2026-05-07 19:14 | 44.94241 | 3.11592 | 36989 ft | 404 kts | 235° |
| 2026-05-07 19:14 | 44.90993 | 3.05123 | 37008 ft | 404 kts | 234° |
| 2026-05-07 19:15 | 44.87732 | 2.98666 | 37001 ft | 404 kts | 234° |
| 2026-05-07 19:15 | 44.84493 | 2.92252 | 36994 ft | 404 kts | 235° |
| 2026-05-07 19:16 | 44.81377 | 2.85653 | 36992 ft | 405 kts | 237° |
| 2026-05-07 19:16 | 44.78359 | 2.78951 | 36987 ft | 405 kts | 237° |
| 2026-05-07 19:17 | 44.75321 | 2.72267 | 36989 ft | 406 kts | 237° |
| 2026-05-07 19:17 | 44.72251 | 2.65610 | 36996 ft | 406 kts | 237° |
| 2026-05-07 19:18 | 44.69159 | 2.58965 | 36988 ft | 406 kts | 237° |
| 2026-05-07 19:18 | 44.66064 | 2.52320 | 36988 ft | 407 kts | 237° |
| 2026-05-07 19:19 | 44.62967 | 2.45673 | 36993 ft | 407 kts | 237° |
| 2026-05-07 19:19 | 44.59859 | 2.39035 | 36993 ft | 407 kts | 236° |
| 2026-05-07 19:20 | 44.56773 | 2.32453 | 36970 ft | 407 kts | 237° |
| 2026-05-07 19:20 | 44.53667 | 2.25818 | 36981 ft | 407 kts | 237° |
| 2026-05-07 19:21 | 44.50552 | 2.19184 | 36965 ft | 408 kts | 236° |
| 2026-05-07 19:21 | 44.47424 | 2.12548 | 36976 ft | 409 kts | 236° |
| 2026-05-07 19:22 | 44.44287 | 2.05911 | 36966 ft | 409 kts | 236° |
| 2026-05-07 19:22 | 44.41138 | 1.99282 | 36966 ft | 409 kts | 236° |
| 2026-05-07 19:23 | 44.37991 | 1.92652 | 36965 ft | 409 kts | 236° |
| 2026-05-07 19:23 | 44.34845 | 1.86036 | 36966 ft | 409 kts | 236° |
| 2026-05-07 19:24 | 44.31684 | 1.79415 | 36968 ft | 410 kts | 236° |
| 2026-05-07 19:24 | 44.28526 | 1.72792 | 36957 ft | 410 kts | 237° |
| 2026-05-07 19:25 | 44.25443 | 1.66096 | 36958 ft | 410 kts | 237° |
| 2026-05-07 19:25 | 44.22390 | 1.59374 | 36952 ft | 410 kts | 237° |
| 2026-05-07 19:26 | 44.19318 | 1.52664 | 36956 ft | 411 kts | 237° |
| 2026-05-07 19:26 | 44.16228 | 1.45967 | 36958 ft | 411 kts | 237° |
| 2026-05-07 19:27 | 44.13127 | 1.39285 | 36965 ft | 411 kts | 237° |
| 2026-05-07 19:27 | 44.10043 | 1.32647 | 36949 ft | 411 kts | 237° |
| 2026-05-07 19:28 | 44.06932 | 1.25974 | 36952 ft | 411 kts | 237° |
| 2026-05-07 19:28 | 44.03818 | 1.19301 | 36950 ft | 412 kts | 237° |
| 2026-05-07 19:29 | 44.00706 | 1.12621 | 36954 ft | 412 kts | 237° |
| 2026-05-07 19:29 | 43.97581 | 1.05946 | 36951 ft | 412 kts | 237° |
| 2026-05-07 19:30 | 43.94444 | 0.99282 | 36968 ft | 412 kts | 237° |
| 2026-05-07 19:30 | 43.91303 | 0.92626 | 36957 ft | 412 kts | 237° |
| 2026-05-07 19:31 | 43.87906 | 0.86244 | 36960 ft | 412 kts | 225° |
| 2026-05-07 19:31 | 43.83644 | 0.80915 | 36961 ft | 413 kts | 222° |
| 2026-05-07 19:32 | 43.79390 | 0.75659 | 36980 ft | 412 kts | 222° |
| 2026-05-07 19:32 | 43.75113 | 0.70381 | 36977 ft | 412 kts | 222° |
| 2026-05-07 19:33 | 43.70836 | 0.65112 | 36972 ft | 412 kts | 222° |
| 2026-05-07 19:33 | 43.66556 | 0.59852 | 36961 ft | 412 kts | 222° |
| 2026-05-07 19:34 | 43.62276 | 0.54599 | 36945 ft | 411 kts | 222° |
| 2026-05-07 19:34 | 43.57994 | 0.49367 | 36946 ft | 411 kts | 222° |
| 2026-05-07 19:35 | 43.53710 | 0.44138 | 36953 ft | 411 kts | 222° |
| 2026-05-07 19:35 | 43.49424 | 0.38918 | 36950 ft | 411 kts | 222° |
| 2026-05-07 19:36 | 43.45135 | 0.33701 | 36950 ft | 412 kts | 222° |
| 2026-05-07 19:36 | 43.40870 | 0.28520 | 36953 ft | 412 kts | 222° |
| 2026-05-07 19:37 | 43.36564 | 0.23311 | 36950 ft | 412 kts | 222° |
| 2026-05-07 19:37 | 43.32252 | 0.18103 | 36953 ft | 413 kts | 222° |
| 2026-05-07 19:38 | 43.27936 | 0.12895 | 36966 ft | 413 kts | 222° |
| 2026-05-07 19:38 | 43.23620 | 0.07695 | 36968 ft | 413 kts | 222° |
| 2026-05-07 19:39 | 43.19296 | 0.02500 | 36970 ft | 413 kts | 222° |
| 2026-05-07 19:39 | 43.15702 | -0.01811 | 36961 ft | 413 kts | 222° |
| 2026-05-07 19:40 | 43.10643 | -0.07864 | 36957 ft | 414 kts | 222° |
| 2026-05-07 19:40 | 43.06335 | -0.13003 | 36966 ft | 414 kts | 222° |
| 2026-05-07 19:41 | 43.01999 | -0.18175 | 36962 ft | 414 kts | 222° |
| 2026-05-07 19:41 | 42.97660 | -0.23343 | 36967 ft | 414 kts | 222° |
| 2026-05-07 19:42 | 42.93319 | -0.28495 | 36988 ft | 413 kts | 222° |
| 2026-05-07 19:42 | 42.88974 | -0.33640 | 36989 ft | 414 kts | 222° |
| 2026-05-07 19:43 | 42.84623 | -0.38778 | 37004 ft | 414 kts | 222° |
| 2026-05-07 19:43 | 42.80095 | -0.43594 | 37000 ft | 415 kts | 211° |
| 2026-05-07 19:44 | 42.75684 | -0.46213 | 37005 ft | 417 kts | 203° |
| 2026-05-07 19:44 | 42.70266 | -0.49050 | 37001 ft | 418 kts | 203° |
| 2026-05-07 19:45 | 42.64838 | -0.51902 | 37013 ft | 418 kts | 204° |
| 2026-05-07 19:45 | 42.59415 | -0.54759 | 37003 ft | 418 kts | 204° |
| 2026-05-07 19:46 | 42.53980 | -0.57610 | 37003 ft | 419 kts | 204° |
| 2026-05-07 19:46 | 42.48535 | -0.60450 | 37011 ft | 419 kts | 204° |
| 2026-05-07 19:47 | 42.43088 | -0.63293 | 37005 ft | 420 kts | 204° |
| 2026-05-07 19:47 | 42.37636 | -0.66134 | 37000 ft | 420 kts | 204° |
| 2026-05-07 19:48 | 42.32172 | -0.68976 | 37002 ft | 421 kts | 204° |
| 2026-05-07 19:48 | 42.26741 | -0.71801 | 37004 ft | 421 kts | 204° |
| 2026-05-07 19:49 | 42.21277 | -0.74632 | 37009 ft | 421 kts | 204° |
| 2026-05-07 19:49 | 42.15808 | -0.77461 | 37000 ft | 421 kts | 204° |
| 2026-05-07 19:50 | 42.10330 | -0.80286 | 36996 ft | 422 kts | 204° |
| 2026-05-07 19:50 | 42.04845 | -0.83107 | 36998 ft | 422 kts | 204° |
| 2026-05-07 19:51 | 41.99349 | -0.85924 | 36997 ft | 423 kts | 204° |
| 2026-05-07 19:51 | 41.93852 | -0.88742 | 36990 ft | 423 kts | 205° |
| 2026-05-07 19:52 | 41.88359 | -0.91558 | 36995 ft | 423 kts | 205° |
| 2026-05-07 19:52 | 41.82865 | -0.94380 | 36997 ft | 423 kts | 205° |
| 2026-05-07 19:53 | 41.77374 | -0.97195 | 36996 ft | 423 kts | 205° |
| 2026-05-07 19:53 | 41.71877 | -0.99993 | 36985 ft | 422 kts | 205° |
| 2026-05-07 19:54 | 41.66477 | -1.03005 | 36994 ft | 417 kts | 214° |
| 2026-05-07 19:54 | 41.61957 | -1.07699 | 36989 ft | 411 kts | 225° |
| 2026-05-07 19:55 | 41.57721 | -1.12825 | 36987 ft | 411 kts | 225° |
| 2026-05-07 19:55 | 41.53504 | -1.17915 | 36987 ft | 411 kts | 226° |
| 2026-05-07 19:56 | 41.49254 | -1.23030 | 36992 ft | 412 kts | 226° |
| 2026-05-07 19:56 | 41.44997 | -1.28139 | 36999 ft | 411 kts | 226° |
| 2026-05-07 19:57 | 41.40741 | -1.33238 | 37008 ft | 411 kts | 226° |
| 2026-05-07 19:57 | 41.36479 | -1.38332 | 37009 ft | 411 kts | 226° |
| 2026-05-07 19:58 | 41.32223 | -1.43419 | 36991 ft | 411 kts | 226° |
| 2026-05-07 19:58 | 41.27963 | -1.48503 | 37002 ft | 411 kts | 226° |
| 2026-05-07 19:59 | 41.23730 | -1.53537 | 37002 ft | 411 kts | 227° |
| 2026-05-07 19:59 | 41.19463 | -1.58595 | 37003 ft | 411 kts | 226° |
| 2026-05-07 20:00 | 41.15201 | -1.63657 | 37006 ft | 411 kts | 227° |
| 2026-05-07 20:00 | 41.10940 | -1.68712 | 36990 ft | 411 kts | 227° |
| 2026-05-07 20:01 | 41.06676 | -1.73744 | 36997 ft | 410 kts | 227° |
| 2026-05-07 20:01 | 41.02413 | -1.78772 | 36999 ft | 410 kts | 227° |
| 2026-05-07 20:02 | 40.98149 | -1.83792 | 36999 ft | 410 kts | 227° |
| 2026-05-07 20:02 | 40.93872 | -1.88807 | 37000 ft | 410 kts | 227° |
| 2026-05-07 20:03 | 40.89629 | -1.93775 | 37000 ft | 410 kts | 227° |
| 2026-05-07 20:03 | 40.85366 | -1.98760 | 37003 ft | 408 kts | 228° |
| 2026-05-07 20:04 | 40.81123 | -2.03719 | 37014 ft | 407 kts | 228° |
| 2026-05-07 20:04 | 40.76891 | -2.08664 | 37017 ft | 406 kts | 228° |
| 2026-05-07 20:05 | 40.72652 | -2.13592 | 37017 ft | 406 kts | 228° |
| 2026-05-07 20:05 | 40.68412 | -2.18511 | 37012 ft | 406 kts | 228° |
| 2026-05-07 20:06 | 40.64179 | -2.23416 | 37010 ft | 405 kts | 228° |
| 2026-05-07 20:06 | 40.59945 | -2.28308 | 37011 ft | 405 kts | 228° |
| 2026-05-07 20:07 | 40.55715 | -2.33186 | 36994 ft | 404 kts | 228° |
| 2026-05-07 20:07 | 40.51493 | -2.38044 | 36999 ft | 403 kts | 228° |
| 2026-05-07 20:08 | 40.47281 | -2.42894 | 36994 ft | 402 kts | 228° |
| 2026-05-07 20:08 | 40.43069 | -2.47733 | 36986 ft | 402 kts | 228° |
| 2026-05-07 20:09 | 40.39005 | -2.52639 | 36994 ft | 394 kts | 236° |
| 2026-05-07 20:10 | 40.35576 | -2.61991 | 36989 ft | 377 kts | 258° |
| 2026-05-07 20:10 | 40.34144 | -2.68609 | 36972 ft | 377 kts | 257° |
| 2026-05-07 20:11 | 40.32702 | -2.75208 | 36974 ft | 377 kts | 257° |
| 2026-05-07 20:11 | 40.31266 | -2.81812 | 36977 ft | 377 kts | 257° |
| 2026-05-07 20:12 | 40.29828 | -2.88409 | 36976 ft | 376 kts | 257° |
| 2026-05-07 20:12 | 40.28380 | -2.94995 | 36966 ft | 376 kts | 257° |
| 2026-05-07 20:13 | 40.26930 | -3.01571 | 36957 ft | 376 kts | 257° |
| 2026-05-07 20:13 | 40.25489 | -3.08148 | 36956 ft | 376 kts | 257° |
| 2026-05-07 20:14 | 40.24039 | -3.14720 | 36965 ft | 375 kts | 257° |
| 2026-05-07 20:14 | 40.22574 | -3.21271 | 36961 ft | 375 kts | 257° |
| 2026-05-07 20:15 | 40.21117 | -3.27821 | 36961 ft | 375 kts | 257° |
| 2026-05-07 20:15 | 40.19668 | -3.34314 | 36947 ft | 374 kts | 257° |
| 2026-05-07 20:16 | 40.18207 | -3.40834 | 36954 ft | 373 kts | 257° |
| 2026-05-07 20:16 | 40.16749 | -3.47343 | 36960 ft | 373 kts | 257° |
| 2026-05-07 20:17 | 40.15289 | -3.53833 | 36965 ft | 372 kts | 257° |
| 2026-05-07 20:17 | 40.13823 | -3.60307 | 36972 ft | 371 kts | 257° |
| 2026-05-07 20:18 | 40.12358 | -3.66777 | 36972 ft | 371 kts | 256° |
| 2026-05-07 20:18 | 40.11377 | -3.69909 | 36971 ft | 376 kts | 245° |
| 2026-05-07 20:18 | 40.09899 | -3.72753 | 36967 ft | 383 kts | 235° |
| 2026-05-07 20:18 | 40.07952 | -3.75179 | 36942 ft | 392 kts | 224° |
| 2026-05-07 20:19 | 40.05689 | -3.77207 | 36937 ft | 396 kts | 221° |
| 2026-05-07 20:19 | 40.01114 | -3.81217 | 36937 ft | 396 kts | 221° |
| 2026-05-07 20:20 | 39.96543 | -3.85229 | 36915 ft | 395 kts | 221° |
| 2026-05-07 20:20 | 39.91993 | -3.89221 | 36946 ft | 393 kts | 221° |
| 2026-05-07 20:21 | 39.87461 | -3.93189 | 36954 ft | 392 kts | 221° |
| 2026-05-07 20:21 | 39.82946 | -3.97143 | 36951 ft | 391 kts | 221° |
| 2026-05-07 20:22 | 39.78463 | -4.01062 | 36953 ft | 390 kts | 221° |
| 2026-05-07 20:22 | 39.73954 | -4.04986 | 36952 ft | 390 kts | 221° |
| 2026-05-07 20:23 | 39.69449 | -4.08908 | 36946 ft | 389 kts | 221° |
| 2026-05-07 20:23 | 39.64954 | -4.12815 | 36948 ft | 388 kts | 221° |
| 2026-05-07 20:24 | 39.60463 | -4.16713 | 36953 ft | 388 kts | 221° |
| 2026-05-07 20:24 | 39.55973 | -4.20595 | 36948 ft | 388 kts | 221° |
| 2026-05-07 20:25 | 39.51492 | -4.24468 | 36950 ft | 387 kts | 221° |
| 2026-05-07 20:25 | 39.47016 | -4.28339 | 36933 ft | 386 kts | 221° |
| 2026-05-07 20:26 | 39.42587 | -4.32160 | 36940 ft | 385 kts | 221° |
| 2026-05-07 20:26 | 39.38132 | -4.35989 | 36946 ft | 384 kts | 221° |
| 2026-05-07 20:27 | 39.33689 | -4.39806 | 36940 ft | 383 kts | 221° |
| 2026-05-07 20:27 | 39.29248 | -4.43614 | 36929 ft | 383 kts | 221° |
| 2026-05-07 20:28 | 39.24813 | -4.47414 | 36923 ft | 382 kts | 221° |
| 2026-05-07 20:28 | 39.20382 | -4.51207 | 36922 ft | 382 kts | 221° |
| 2026-05-07 20:29 | 39.15959 | -4.54995 | 36925 ft | 382 kts | 221° |
| 2026-05-07 20:29 | 39.11530 | -4.58768 | 36915 ft | 381 kts | 220° |
| 2026-05-07 20:30 | 39.07114 | -4.62518 | 36920 ft | 380 kts | 220° |
| 2026-05-07 20:30 | 39.02739 | -4.66234 | 36887 ft | 379 kts | 220° |
| 2026-05-07 20:31 | 38.98351 | -4.69966 | 36901 ft | 378 kts | 220° |
| 2026-05-07 20:31 | 38.93966 | -4.73691 | 36908 ft | 377 kts | 220° |
| 2026-05-07 20:32 | 38.89582 | -4.77397 | 36906 ft | 377 kts | 220° |
| 2026-05-07 20:32 | 38.85199 | -4.81099 | 36907 ft | 377 kts | 220° |
| 2026-05-07 20:33 | 38.80819 | -4.84795 | 36904 ft | 377 kts | 220° |
| 2026-05-07 20:33 | 38.76432 | -4.88485 | 36894 ft | 377 kts | 220° |
| 2026-05-07 20:34 | 38.72044 | -4.92168 | 36648 ft | 376 kts | 220° |
| 2026-05-07 20:34 | 38.69860 | -4.94004 | 35940 ft | 376 kts | 220° |
| 2026-05-07 20:34 | 38.67676 | -4.95840 | 35365 ft | 375 kts | 219° |
| 2026-05-07 20:34 | 38.65531 | -4.97645 | 34854 ft | 372 kts | 219° |
| 2026-05-07 20:35 | 38.63379 | -4.99455 | 34356 ft | 369 kts | 219° |
| 2026-05-07 20:35 | 38.61238 | -5.01252 | 33847 ft | 367 kts | 219° |
| 2026-05-07 20:35 | 38.59104 | -5.03037 | 33284 ft | 366 kts | 218° |
| 2026-05-07 20:35 | 38.56977 | -5.04812 | 32705 ft | 364 kts | 218° |
| 2026-05-07 20:36 | 38.54856 | -5.06581 | 32149 ft | 364 kts | 218° |
| 2026-05-07 20:36 | 38.52743 | -5.08340 | 31600 ft | 362 kts | 218° |
| 2026-05-07 20:36 | 38.50611 | -5.10054 | 31101 ft | 362 kts | 213° |
| 2026-05-07 20:36 | 38.48352 | -5.11490 | 30597 ft | 362 kts | 211° |
| 2026-05-07 20:37 | 38.46088 | -5.12899 | 30110 ft | 361 kts | 211° |
| 2026-05-07 20:37 | 38.43837 | -5.14302 | 29572 ft | 360 kts | 210° |
| 2026-05-07 20:37 | 38.41590 | -5.15699 | 29066 ft | 358 kts | 210° |
| 2026-05-07 20:37 | 38.39361 | -5.17083 | 28588 ft | 355 kts | 210° |
| 2026-05-07 20:38 | 38.37143 | -5.18457 | 28118 ft | 353 kts | 210° |
| 2026-05-07 20:38 | 38.34946 | -5.19817 | 27663 ft | 350 kts | 210° |
| 2026-05-07 20:38 | 38.32759 | -5.21174 | 27204 ft | 348 kts | 210° |
| 2026-05-07 20:38 | 38.30577 | -5.22530 | 26412 ft | 355 kts | 210° |
| 2026-05-07 20:39 | 38.28317 | -5.23940 | 25397 ft | 368 kts | 210° |
| 2026-05-07 20:39 | 38.26781 | -5.24896 | 24871 ft | 373 kts | 209° |
| 2026-05-07 20:39 | 38.23687 | -5.26812 | 24090 ft | 373 kts | 209° |
| 2026-05-07 20:39 | 38.21356 | -5.28247 | 23566 ft | 371 kts | 209° |
| 2026-05-07 20:40 | 38.19036 | -5.29673 | 23010 ft | 369 kts | 209° |
| 2026-05-07 20:40 | 38.16732 | -5.31090 | 22456 ft | 367 kts | 209° |
| 2026-05-07 20:40 | 38.14446 | -5.32497 | 21945 ft | 364 kts | 209° |
| 2026-05-07 20:40 | 38.12940 | -5.33427 | 21612 ft | 363 kts | 208° |
| 2026-05-07 20:41 | 38.10678 | -5.34820 | 21130 ft | 360 kts | 208° |
| 2026-05-07 20:41 | 38.08432 | -5.36201 | 20644 ft | 357 kts | 208° |
| 2026-05-07 20:41 | 38.06203 | -5.37574 | 20135 ft | 355 kts | 208° |
| 2026-05-07 20:41 | 38.03994 | -5.38934 | 19670 ft | 352 kts | 208° |
| 2026-05-07 20:42 | 38.01797 | -5.40282 | 19199 ft | 349 kts | 208° |
| 2026-05-07 20:42 | 37.99617 | -5.41619 | 18729 ft | 347 kts | 208° |
| 2026-05-07 20:42 | 37.97447 | -5.42947 | 18269 ft | 346 kts | 208° |
| 2026-05-07 20:42 | 37.95289 | -5.44268 | 17769 ft | 343 kts | 208° |
| 2026-05-07 20:43 | 37.93144 | -5.45580 | 17285 ft | 341 kts | 207° |
| 2026-05-07 20:43 | 37.91013 | -5.46883 | 16805 ft | 339 kts | 207° |
| 2026-05-07 20:43 | 37.88901 | -5.48178 | 16346 ft | 336 kts | 207° |
| 2026-05-07 20:43 | 37.86805 | -5.49463 | 15887 ft | 334 kts | 207° |
| 2026-05-07 20:44 | 37.84725 | -5.50736 | 15462 ft | 331 kts | 206° |
| 2026-05-07 20:44 | 37.82683 | -5.51987 | 15034 ft | 330 kts | 206° |
| 2026-05-07 20:44 | 37.80595 | -5.53262 | 14586 ft | 328 kts | 206° |
| 2026-05-07 20:44 | 37.78545 | -5.54511 | 14158 ft | 326 kts | 206° |
| 2026-05-07 20:45 | 37.76508 | -5.55751 | 13743 ft | 324 kts | 206° |
| 2026-05-07 20:45 | 37.74508 | -5.56972 | 13255 ft | 323 kts | 205° |
| 2026-05-07 20:45 | 37.72488 | -5.58205 | 12765 ft | 322 kts | 205° |
| 2026-05-07 20:45 | 37.70477 | -5.59426 | 12274 ft | 320 kts | 205° |
| 2026-05-07 20:46 | 37.68476 | -5.60637 | 11806 ft | 318 kts | 205° |
| 2026-05-07 20:46 | 37.66491 | -5.61842 | 11346 ft | 316 kts | 205° |
| 2026-05-07 20:46 | 37.64518 | -5.63043 | 10871 ft | 315 kts | 205° |
| 2026-05-07 20:46 | 37.62542 | -5.64243 | 10343 ft | 315 kts | 205° |
| 2026-05-07 20:47 | 37.60566 | -5.65440 | 10008 ft | 315 kts | 204° |
| 2026-05-07 20:47 | 37.58609 | -5.66626 | 9926 ft | 305 kts | 204° |
| 2026-05-07 20:47 | 37.56752 | -5.67751 | 9937 ft | 288 kts | 204° |
| 2026-05-07 20:47 | 37.54963 | -5.68836 | 9943 ft | 284 kts | 205° |
| 2026-05-07 20:48 | 37.53186 | -5.69913 | 9946 ft | 283 kts | 204° |
| 2026-05-07 20:48 | 37.51412 | -5.70986 | 9941 ft | 283 kts | 205° |
| 2026-05-07 20:48 | 37.49635 | -5.72059 | 9947 ft | 283 kts | 204° |
| 2026-05-07 20:48 | 37.47859 | -5.73130 | 9951 ft | 283 kts | 204° |
| 2026-05-07 20:49 | 37.46082 | -5.74202 | 9943 ft | 283 kts | 204° |
| 2026-05-07 20:49 | 37.44302 | -5.75274 | 9945 ft | 284 kts | 204° |
| 2026-05-07 20:49 | 37.42510 | -5.76305 | 9950 ft | 283 kts | 198° |
| 2026-05-07 20:49 | 37.40644 | -5.77080 | 9931 ft | 283 kts | 196° |
| 2026-05-07 20:50 | 37.38771 | -5.77848 | 9661 ft | 282 kts | 197° |
| 2026-05-07 20:50 | 37.36910 | -5.78612 | 9408 ft | 281 kts | 197° |
| 2026-05-07 20:50 | 37.35080 | -5.79364 | 9145 ft | 280 kts | 197° |
| 2026-05-07 20:50 | 37.33232 | -5.80124 | 8883 ft | 279 kts | 197° |
| 2026-05-07 20:51 | 37.31397 | -5.80877 | 8617 ft | 276 kts | 197° |
| 2026-05-07 20:51 | 37.29573 | -5.81622 | 8333 ft | 275 kts | 197° |
| 2026-05-07 20:51 | 37.27759 | -5.82362 | 8059 ft | 273 kts | 197° |
| 2026-05-07 20:51 | 37.25955 | -5.83098 | 7779 ft | 272 kts | 197° |
| 2026-05-07 20:52 | 37.24156 | -5.83830 | 7507 ft | 271 kts | 197° |
| 2026-05-07 20:52 | 37.22366 | -5.84560 | 7238 ft | 270 kts | 197° |
| 2026-05-07 20:52 | 37.20584 | -5.85286 | 6970 ft | 269 kts | 197° |
| 2026-05-07 20:52 | 37.18811 | -5.86010 | 6704 ft | 268 kts | 197° |
| 2026-05-07 20:53 | 37.17042 | -5.86733 | 6438 ft | 267 kts | 196° |
| 2026-05-07 20:53 | 37.15281 | -5.87452 | 6155 ft | 266 kts | 197° |
| 2026-05-07 20:53 | 37.13527 | -5.88167 | 5880 ft | 264 kts | 197° |
| 2026-05-07 20:53 | 37.11781 | -5.88877 | 5601 ft | 263 kts | 197° |
| 2026-05-07 20:54 | 37.10049 | -5.89584 | 5322 ft | 261 kts | 197° |
| 2026-05-07 20:54 | 37.08331 | -5.90285 | 5054 ft | 259 kts | 197° |
| 2026-05-07 20:54 | 37.06630 | -5.90979 | 4783 ft | 256 kts | 197° |
| 2026-05-07 20:54 | 37.04960 | -5.91643 | 4506 ft | 255 kts | 193° |
| 2026-05-07 20:55 | 37.03224 | -5.92058 | 4229 ft | 254 kts | 193° |
| 2026-05-07 20:55 | 37.01564 | -5.92718 | 3950 ft | 247 kts | 200° |
| 2026-05-07 20:55 | 36.99991 | -5.93499 | 3673 ft | 240 kts | 201° |
| 2026-05-07 20:55 | 36.98460 | -5.94264 | 3442 ft | 232 kts | 201° |
| 2026-05-07 20:56 | 36.96994 | -5.94985 | 3324 ft | 221 kts | 201° |
| 2026-05-07 20:56 | 36.95595 | -5.95672 | 3198 ft | 211 kts | 201° |
| 2026-05-07 20:56 | 36.94255 | -5.96329 | 3065 ft | 203 kts | 201° |
| 2026-05-07 20:56 | 36.92953 | -5.96967 | 2838 ft | 199 kts | 201° |
| 2026-05-07 20:57 | 36.91674 | -5.97594 | 2645 ft | 197 kts | 202° |
| 2026-05-07 20:57 | 36.90417 | -5.98210 | 2590 ft | 188 kts | 201° |
| 2026-05-07 20:57 | 36.89214 | -5.98806 | 2542 ft | 184 kts | 202° |
| 2026-05-07 20:57 | 36.88040 | -5.99408 | 2504 ft | 181 kts | 202° |
| 2026-05-07 20:58 | 36.86862 | -5.99975 | 2433 ft | 182 kts | 201° |
| 2026-05-07 20:58 | 36.85685 | -6.00546 | 2256 ft | 181 kts | 202° |
| 2026-05-07 20:58 | 36.84522 | -6.01118 | 2037 ft | 175 kts | 202° |
| 2026-05-07 20:58 | 36.83460 | -6.01609 | 1821 ft | 156 kts | 203° |
| 2026-05-07 20:59 | 36.82482 | -6.02106 | 1529 ft | 148 kts | 203° |
| 2026-05-07 20:59 | 36.81560 | -6.02573 | 1283 ft | 139 kts | 203° |
| 2026-05-07 20:59 | 36.80661 | -6.02980 | 1059 ft | 136 kts | 201° |
| 2026-05-07 20:59 | 36.79792 | -6.03420 | 888 ft | 134 kts | 204° |
| 2026-05-07 21:00 | 36.78924 | -6.03844 | 742 ft | 134 kts | 202° |
| 2026-05-07 21:00 | 36.78060 | -6.04279 | 591 ft | 133 kts | 202° |
| 2026-05-07 21:00 | 36.77189 | -6.04678 | 440 ft | 133 kts | 203° |
| 2026-05-07 21:00 | 36.76333 | -6.05106 | 295 ft | 132 kts | 202° |
| 2026-05-07 21:01 | 36.75474 | -6.05519 | 147 ft | 132 kts | 202° |
| 2026-05-07 21:01 | 36.74673 | -6.05915 | 93 ft | 110 kts | 203° |
| 2026-05-07 21:01 | 36.74115 | -6.06188 | 83 ft | 62 kts | 201° |
| 2026-05-07 21:01 | 36.73858 | -6.06307 | 73 ft | 29 kts | 201° |
| 2026-05-07 21:02 | 36.73653 | -6.06404 | 66 ft | 19 kts | 201° |
| 2026-05-07 21:02 | 36.73534 | -6.06477 | 68 ft | 14 kts | 223° |
| 2026-05-07 21:02 | 36.73546 | -6.06594 | 68 ft | 16 kts | 299° |
| 2026-05-07 21:02 | 36.73642 | -6.06630 | 69 ft | 20 kts | 17° |
| 2026-05-07 21:03 | 36.73793 | -6.06557 | 70 ft | 26 kts | 21° |
| 2026-05-07 21:03 | 36.73957 | -6.06477 | 82 ft | 26 kts | 21° |
| 2026-05-07 21:03 | 36.74126 | -6.06395 | 84 ft | 26 kts | 21° |
| 2026-05-07 21:03 | 36.74298 | -6.06311 | 84 ft | 27 kts | 20° |
| 2026-05-07 21:04 | 36.74414 | -6.06286 | 85 ft | 5 kts | 296° |
| 2026-05-07 21:04 | 36.74425 | -6.06315 | 89 ft | 1 kts | 346° |
| 2026-05-07 21:04 | 36.74442 | -6.06254 | 86 ft | 15 kts | 52° |
| 2026-05-07 21:04 | 36.74564 | -6.06182 | 86 ft | 22 kts | 20° |
| 2026-05-07 21:05 | 36.74704 | -6.06114 | 88 ft | 15 kts | 21° |
| 2026-05-07 21:05 | 36.74762 | -6.06170 | 90 ft | 12 kts | 292° |
| 2026-05-07 21:05 | 36.74800 | -6.06264 | 90 ft | 12 kts | 323° |
| 2026-05-07 21:05 | 36.74866 | -6.06258 | 90 ft | 9 kts | 20° |
| 2026-05-07 21:06 | 36.74908 | -6.06268 | 94 ft | 6 kts | 307° |
| 2026-05-07 21:06 | 36.74915 | -6.06285 | 90 ft | 0 kts | 293° |
| 2026-05-07 21:06 | 36.74920 | -6.06306 | 91 ft | 0 kts | 285° |
| 2026-05-07 21:06 | 36.74921 | -6.06312 | 90 ft | 3 kts | 284° |
| 2026-05-07 21:07 | 36.74924 | -6.06325 | 92 ft | 0 kts | 284° |